Terminal Aerodrome Forecast
Issued by NWS

Home | Current Version | Previous Version | Text Only | Print | Product List | Glossary On
Versions: 1 2 3 4 5 6 7 8 9 10 11 12 13 14
000
FTUS45 KREV 211120
TAFCXP
TAF
KCXP 211120Z 2112/2212 VRB03KT P6SM SCT200
     FM211900 20006KT P6SM FEW100 SCT200
     FM212100 26008KT P6SM SCT100 BKN200
     FM220300 VRB03KT P6SM FEW100 SCT200=

USA.gov is the U.S. government's official web portal to all federal, state and local government web resources and services.